ZHHHZSOF

Guest
Details From ZHHH - TIANHE
To ZSOF - LUOGANG
Flight Number -
Tags generated
Created
Modified
Stats Distance 170 nm / 314 km
Max Altitude 15,600 ft / 4,755 m
Waypoints 3
Social Downloads 0
Likes 0
Share VATSIM

Download

Looking for another format? Having issues loading an existing format? Contact us
Advertisement - Login to hide

Notes

Basic altitude profile: - Ascent Rate: 2500ft/min - Ascent Speed: 250kts - Cruise Altitude: 35000ft - Cruise Speed: 420kts - Descent Rate: 1500ft/min - Descent Speed: 250kts

Route

ZHHH MIDOX ZSOF

ID Type Via Altitude Latitude Longitude Leg Dist Tot Dist Heading (true) Name
O ZHHH APT - 0 ft / 0 m 30.78376˚ 114.20810˚ - 0 nm - TIANHE
MIDOX FIX - 15,600 ft / 4,755 m 31.32333˚ 115.88167˚ 92 nm 92 nm 69° / 70° -
O ZSOF APT - 0 ft / 0 m 31.78002˚ 117.29871˚ 77 nm 169 nm 69° / 70° LUOGANG

Altitude Profile

Advertisement - Login to hide

Weather


0- 5 10 15 20 25 30 35+ Temperature / ° C

Clouds and Precipitation
Forecast for 2017-12-15 12:00 UTC. Updated 2 hours ago

Ground ~20,000 ft ~40,000 ft Winds

ZHHH

Details ICAO ZHHH (WUH)
Name TIANHE
Region China
Timezone Asia/Shanghai (UTC+8.0)
Stats Elevation 113 ft / 34 m (AMSL)
Location 30.783759° 114.208099°
Runways 1
Magnetic Variation 4.386° W

METAR

ZHHH 150800Z 02002MPS 340V050 3500 BR SCT013 06/03 Q1028 NOSIG

Decode

TAF

Not found

Departure Runways

ID Width Length Bearing (true) Bearing (mag) Surface Threshold Offset Overrun Length
04 148 ft / 45 m 11,170 ft / 3,405 m 41.41° 45.80° Concrete 0 ft / 0 m 197 ft / 60 m
22 148 ft / 45 m 11,170 ft / 3,405 m 221.42° 225.81° Concrete 0 ft / 0 m 197 ft / 60 m

ZSOF

Details ICAO ZSOF (HFE)
Name LUOGANG
Region China
Timezone Asia/Shanghai (UTC+8.0)
Stats Elevation 108 ft / 33 m (AMSL)
Location 31.780018° 117.298714°
Runways 1
Magnetic Variation 5.279° W

METAR

ZSOF 150800Z 34004MPS 1400 R33/P2000 -RA BR BKN004 OVC026 04/04 Q1028 NOSIG

Decode

TAF

Not found

Destination Runways

ID Width Length Bearing (true) Bearing (mag) Surface Threshold Offset Overrun Length
14 164 ft / 50 m 9,853 ft / 3,003 m 135.43° 140.71° Concrete 0 ft / 0 m 165 ft / 50 m
32 164 ft / 50 m 9,853 ft / 3,003 m 315.44° 320.72° Concrete 0 ft / 0 m 165 ft / 50 m

Approach Navaids

Runway Type Ident Frequency Range Bearing (true) Bearing (mag) Slope Elevation
14 Localiser ISB 109.10 MHz 18 nm / 33 km 135.61° 140.88° - 108 ft / 33 m (AMSL)
14 Glidescope ISB 109.10 MHz 10 nm / 19 km 135.43° 140.71° 3.00° 108 ft / 33 m (AMSL)
32 Localiser IGV 108.30 MHz 18 nm / 33 km 315.35° 320.63° - 108 ft / 33 m (AMSL)
32 Glidescope IGV 108.30 MHz 10 nm / 19 km 315.43° 320.71° 3.00° 108 ft / 33 m (AMSL)

Popular Alternatives